Time;durP1;ratioP1;P1;durP2;ratioP2;P2;SDS_P1;SDS_P2;PMS_P1;PMS_P2;Temp;Humidity;BMP_temperature;BMP_pressure;BME280_temperature;BME280_humidity;BME280_pressure;Samples;Min_cycle;Max_cycle;Signal;HPM_P1;HPM_P2
2022/02/12 00:02:27;;;;;;;8.57;2.97;;;;;;;;;;5110199;28;20280;-76
2022/02/12 00:04:53;;;;;;;15.60;3.65;;;;;;;;;;5111162;28;20628;-76
2022/02/12 00:07:19;;;;;;;13.27;4.60;;;;;;;;;;5113869;28;20227;-76
2022/02/12 00:09:45;;;;;;;13.95;4.70;;;;;;;;;;5111076;28;20197;-76
2022/02/12 00:12:15;;;;;;;11.60;3.97;;;;;;;;;;5111110;28;20550;-76
2022/02/12 00:14:45;;;;;;;21.20;4.50;;;;;;;;;;5106805;28;20407;-76
2022/02/12 00:17:11;;;;;;;16.48;4.45;;;;;;;;;;5109239;28;20178;-76
2022/02/12 00:19:37;;;;;;;28.60;5.25;;;;;;;;;;5105600;28;20174;-77
2022/02/12 00:22:04;;;;;;;21.35;4.57;;;;;;;;;;5110844;28;20197;-76
2022/02/12 00:24:30;;;;;;;8.93;4.22;;;;;;;;;;5109965;28;20202;-76
2022/02/12 00:26:56;;;;;;;14.27;4.50;;;;;;;;;;5103175;28;20167;-76
2022/02/12 00:29:22;;;;;;;16.40;4.40;;;;;;;;;;5095410;28;20681;-76
2022/02/12 00:31:48;;;;;;;16.27;4.80;;;;;;;;;;5090382;28;20174;-76
2022/02/12 00:34:14;;;;;;;15.70;4.30;;;;;;;;;;5094762;28;20773;-76
2022/02/12 00:36:40;;;;;;;18.27;4.47;;;;;;;;;;5103089;28;20412;-73
2022/02/12 00:39:06;;;;;;;27.07;5.90;;;;;;;;;;5110503;28;20517;-74
2022/02/12 00:41:32;;;;;;;15.77;4.55;;;;;;;;;;5105043;28;20452;-74
2022/02/12 00:43:59;;;;;;;20.83;5.00;;;;;;;;;;5109215;28;20550;-73
2022/02/12 00:46:25;;;;;;;31.23;6.78;;;;;;;;;;5093436;28;20575;-74
2022/02/12 00:48:50;;;;;;;15.68;5.22;;;;;;;;;;5095626;28;20641;-73
2022/02/12 00:51:16;;;;;;;23.30;7.03;;;;;;;;;;5102252;28;20174;-74
2022/02/12 00:53:42;;;;;;;26.43;6.90;;;;;;;;;;5102573;28;20519;-74
2022/02/12 00:56:09;;;;;;;22.20;5.00;;;;;;;;;;5101986;28;20420;-74
2022/02/12 00:58:35;;;;;;;85.38;14.63;;;;;;;;;;5088209;28;20236;-74
2022/02/12 01:01:01;;;;;;;20.30;7.03;;;;;;;;;;5096744;28;20641;-74
2022/02/12 01:03:27;;;;;;;23.75;6.72;;;;;;;;;;5088792;28;20205;-74
2022/02/12 01:05:53;;;;;;;29.07;7.47;;;;;;;;;;5083972;28;20180;-73
2022/02/12 01:08:19;;;;;;;20.25;6.72;;;;;;;;;;5087493;28;20414;-74
2022/02/12 01:10:45;;;;;;;33.10;8.32;;;;;;;;;;5094827;28;20692;-74
2022/02/12 01:13:11;;;;;;;25.77;7.93;;;;;;;;;;5094814;28;20311;-74
2022/02/12 01:15:37;;;;;;;18.55;6.60;;;;;;;;;;5085095;28;20504;-73
2022/02/12 01:18:04;;;;;;;18.48;6.25;;;;;;;;;;5095171;28;20208;-73
2022/02/12 01:20:30;;;;;;;18.60;5.38;;;;;;;;;;5094896;28;20185;-73
2022/02/12 01:22:56;;;;;;;11.60;3.95;;;;;;;;;;5095745;28;20693;-76
2022/02/12 01:25:22;;;;;;;12.33;5.30;;;;;;;;;;5095252;28;20186;-76
2022/02/12 01:27:48;;;;;;;20.02;5.30;;;;;;;;;;5080767;28;20413;-76
2022/02/12 01:30:14;;;;;;;10.80;4.30;;;;;;;;;;5091016;28;20182;-76
2022/02/12 01:32:41;;;;;;;16.00;4.68;;;;;;;;;;5081598;28;20877;-76
2022/02/12 01:35:07;;;;;;;17.58;5.50;;;;;;;;;;5087033;28;20190;-76
2022/02/12 01:37:34;;;;;;;17.67;4.60;;;;;;;;;;5082371;28;20217;-76
2022/02/12 01:40:00;;;;;;;13.40;4.82;;;;;;;;;;5094409;28;20185;-76
2022/02/12 01:42:28;;;;;;;19.38;4.97;;;;;;;;;;5095011;28;20235;-76
2022/02/12 01:44:54;;;;;;;27.23;5.70;;;;;;;;;;5094493;28;20685;-76
2022/02/12 01:47:20;;;;;;;19.23;5.65;;;;;;;;;;5084298;28;20261;-76
2022/02/12 01:49:46;;;;;;;15.07;5.30;;;;;;;;;;5088830;28;20174;-76
2022/02/12 01:52:13;;;;;;;20.20;4.35;;;;;;;;;;5080302;28;20593;-75
2022/02/12 01:54:39;;;;;;;13.75;4.47;;;;;;;;;;5088262;28;20197;-76
2022/02/12 01:57:06;;;;;;;23.17;5.88;;;;;;;;;;5094309;28;20170;-76
2022/02/12 01:59:32;;;;;;;10.13;3.72;;;;;;;;;;5094471;28;20189;-76
2022/02/12 02:01:58;;;;;;;15.13;4.65;;;;;;;;;;5079075;28;20170;-76
2022/02/12 02:04:24;;;;;;;12.75;5.00;;;;;;;;;;5087845;28;20198;-75
2022/02/12 02:06:51;;;;;;;17.52;4.50;;;;;;;;;;5094597;28;20178;-73
2022/02/12 02:09:18;;;;;;;17.13;4.53;;;;;;;;;;5090526;28;20178;-73
2022/02/12 02:11:44;;;;;;;20.75;5.10;;;;;;;;;;5093931;28;20178;-73
2022/02/12 02:14:10;;;;;;;12.75;4.60;;;;;;;;;;5094337;28;20185;-74
2022/02/12 02:16:37;;;;;;;15.10;4.97;;;;;;;;;;5093073;28;20562;-74
2022/02/12 02:19:04;;;;;;;11.43;3.90;;;;;;;;;;5093815;28;20210;-73
2022/02/12 02:21:30;;;;;;;21.17;4.28;;;;;;;;;;5086899;28;20202;-74
2022/02/12 02:23:56;;;;;;;16.33;5.07;;;;;;;;;;5094727;28;20198;-75
2022/02/12 02:26:23;;;;;;;23.08;5.95;;;;;;;;;;5085378;28;20178;-73
2022/02/12 02:28:49;;;;;;;20.02;5.03;;;;;;;;;;5093893;28;20686;-74
2022/02/12 02:31:15;;;;;;;11.40;4.63;;;;;;;;;;5093962;28;20171;-73
2022/02/12 02:33:41;;;;;;;13.77;4.70;;;;;;;;;;5093890;28;20416;-74
2022/02/12 02:36:07;;;;;;;19.42;4.95;;;;;;;;;;5093981;28;20193;-74
2022/02/12 02:38:33;;;;;;;23.17;6.47;;;;;;;;;;5092525;28;20185;-77
2022/02/12 02:41:00;;;;;;;15.98;4.78;;;;;;;;;;5093871;28;20276;-76
2022/02/12 02:43:27;;;;;;;32.78;5.70;;;;;;;;;;5085572;28;20198;-76
2022/02/12 02:45:53;;;;;;;15.25;3.83;;;;;;;;;;5077509;28;20697;-76
2022/02/12 02:48:19;;;;;;;32.00;5.00;;;;;;;;;;5078136;28;20175;-76
2022/02/12 02:56:15;;;;;;;13.55;4.90;;;;;;;;;;5082663;28;20197;-73
2022/02/12 02:58:42;;;;;;;24.85;6.03;;;;;;;;;;5091368;28;20538;-73
2022/02/12 03:01:11;;;;;;;8.93;3.83;;;;;;;;;;5092008;28;20549;-74
2022/02/12 03:03:37;;;;;;;14.75;4.32;;;;;;;;;;5091997;28;20326;-73
2022/02/12 03:06:03;;;;;;;11.05;4.35;;;;;;;;;;5071978;28;20623;-73
2022/02/12 03:08:29;;;;;;;13.50;4.43;;;;;;;;;;5085679;28;20162;-76
2022/02/12 03:10:56;;;;;;;15.98;5.10;;;;;;;;;;5086305;28;20253;-76
2022/02/12 03:13:22;;;;;;;14.13;4.40;;;;;;;;;;5085319;28;20179;-76
2022/02/12 03:15:48;;;;;;;13.80;4.85;;;;;;;;;;5093185;28;20273;-76
2022/02/12 03:18:14;;;;;;;16.98;5.28;;;;;;;;;;5093304;28;20228;-76
2022/02/12 03:20:40;;;;;;;12.20;4.28;;;;;;;;;;5093052;28;20174;-76
2022/02/12 03:23:07;;;;;;;10.63;3.95;;;;;;;;;;5077481;28;20396;-75
2022/02/12 03:25:33;;;;;;;12.50;3.92;;;;;;;;;;5089911;28;20427;-76
2022/02/12 03:28:00;;;;;;;12.13;3.95;;;;;;;;;;5092610;28;20228;-76
2022/02/12 03:30:30;;;;;;;11.27;3.30;;;;;;;;;;5083674;28;20205;-75
2022/02/12 03:32:56;;;;;;;12.98;3.72;;;;;;;;;;5091383;28;20178;-76
2022/02/12 03:35:22;;;;;;;14.18;3.70;;;;;;;;;;5092890;28;20261;-76
2022/02/12 03:37:49;;;;;;;17.55;4.20;;;;;;;;;;5082209;28;20249;-76
2022/02/12 03:40:16;;;;;;;13.82;3.75;;;;;;;;;;5092543;28;20182;-75
2022/02/12 03:42:42;;;;;;;16.98;4.78;;;;;;;;;;5079174;28;20261;-76
2022/02/12 03:45:08;;;;;;;13.25;4.10;;;;;;;;;;5092891;28;20201;-76
2022/02/12 03:47:34;;;;;;;18.33;4.50;;;;;;;;;;5089481;28;20296;-76
2022/02/12 03:50:01;;;;;;;13.68;4.10;;;;;;;;;;5092330;28;20166;-76
2022/02/12 03:52:30;;;;;;;12.27;4.38;;;;;;;;;;5092675;28;20541;-73
2022/02/12 03:54:56;;;;;;;14.70;4.15;;;;;;;;;;5092520;28;20570;-73
2022/02/12 03:57:22;;;;;;;18.48;4.72;;;;;;;;;;5091114;28;20217;-73
2022/02/12 03:59:48;;;;;;;25.48;4.13;;;;;;;;;;5091132;28;20227;-74
2022/02/12 04:02:14;;;;;;;12.13;4.63;;;;;;;;;;5075467;28;20175;-73
2022/02/12 04:04:40;;;;;;;12.53;3.50;;;;;;;;;;5088945;28;20558;-74
2022/02/12 04:07:06;;;;;;;17.10;4.07;;;;;;;;;;5092456;28;20425;-73
2022/02/12 04:09:32;;;;;;;13.07;4.30;;;;;;;;;;5088968;28;20174;-73
2022/02/12 04:11:58;;;;;;;14.30;3.77;;;;;;;;;;5074278;28;20417;-74
2022/02/12 04:14:24;;;;;;;14.50;5.03;;;;;;;;;;5074991;28;20499;-74
2022/02/12 04:16:50;;;;;;;33.80;7.10;;;;;;;;;;5074691;28;20178;-73
2022/02/12 04:19:16;;;;;;;13.98;4.20;;;;;;;;;;5081012;28;20543;-73
2022/02/12 04:21:42;;;;;;;13.60;4.23;;;;;;;;;;5089332;28;20185;-73
2022/02/12 04:24:08;;;;;;;14.73;4.45;;;;;;;;;;5092494;28;20450;-75
2022/02/12 04:26:34;;;;;;;10.30;3.93;;;;;;;;;;5089450;28;20166;-76
2022/02/12 04:29:00;;;;;;;22.63;5.20;;;;;;;;;;5092463;28;20503;-75
2022/02/12 04:31:26;;;;;;;34.43;5.00;;;;;;;;;;5087549;28;20915;-76
2022/02/12 04:33:52;;;;;;;12.93;4.80;;;;;;;;;;5081451;28;20424;-77
2022/02/12 04:36:18;;;;;;;14.47;4.40;;;;;;;;;;5087746;28;20542;-76
2022/02/12 04:38:44;;;;;;;22.58;4.82;;;;;;;;;;5092364;28;20420;-75
2022/02/12 04:41:10;;;;;;;12.55;4.35;;;;;;;;;;5086831;28;20174;-76
2022/02/12 04:43:37;;;;;;;18.70;5.73;;;;;;;;;;5095712;28;20793;-76
2022/02/12 04:46:03;;;;;;;9.73;3.90;;;;;;;;;;5077651;28;20405;-75
2022/02/12 04:48:29;;;;;;;15.63;4.43;;;;;;;;;;5082906;28;20171;-76
2022/02/12 04:50:55;;;;;;;15.95;4.88;;;;;;;;;;5095702;28;20235;-75
2022/02/12 04:53:21;;;;;;;9.55;4.15;;;;;;;;;;5095766;28;20190;-75
2022/02/12 04:55:47;;;;;;;14.40;4.10;;;;;;;;;;5095908;28;20269;-76
2022/02/12 04:58:13;;;;;;;9.10;4.10;;;;;;;;;;5095493;28;20466;-76
2022/02/12 05:00:41;;;;;;;11.37;3.93;;;;;;;;;;5095421;28;20442;-76
2022/02/12 05:03:07;;;;;;;17.80;4.63;;;;;;;;;;5095523;28;20832;-75
2022/02/12 05:05:33;;;;;;;17.48;5.53;;;;;;;;;;5079674;28;20182;-75
2022/02/12 05:07:59;;;;;;;16.50;5.17;;;;;;;;;;5083795;28;20546;-75
2022/02/12 05:10:25;;;;;;;22.97;6.03;;;;;;;;;;5095931;28;20440;-73
2022/02/12 05:12:51;;;;;;;36.50;6.80;;;;;;;;;;5085394;28;20833;-74
2022/02/12 05:15:18;;;;;;;15.10;5.03;;;;;;;;;;5076907;28;20175;-74
2022/02/12 05:17:44;;;;;;;16.98;4.95;;;;;;;;;;5078054;28;20630;-73
2022/02/12 05:20:10;;;;;;;18.08;5.22;;;;;;;;;;5095389;28;20174;-73
2022/02/12 05:22:36;;;;;;;17.95;5.10;;;;;;;;;;5094927;28;20206;-73
2022/02/12 05:25:03;;;;;;;7.95;3.65;;;;;;;;;;5093644;28;20197;-75
2022/02/12 05:27:30;;;;;;;13.93;4.25;;;;;;;;;;5095357;28;20267;-75
2022/02/12 05:29:56;;;;;;;15.05;4.68;;;;;;;;;;5095227;28;20198;-76
2022/02/12 05:32:22;;;;;;;18.85;5.68;;;;;;;;;;5094803;28;20178;-76
2022/02/12 05:34:48;;;;;;;8.10;3.65;;;;;;;;;;5095141;28;20181;-76
2022/02/12 05:37:14;;;;;;;16.48;5.47;;;;;;;;;;5095007;28;20180;-76
2022/02/12 05:39:40;;;;;;;14.95;4.53;;;;;;;;;;5090797;28;20175;-76
2022/02/12 05:42:07;;;;;;;10.80;4.78;;;;;;;;;;5076381;28;20228;-76
2022/02/12 05:44:33;;;;;;;25.88;5.50;;;;;;;;;;5076050;28;20290;-76
2022/02/12 05:46:59;;;;;;;19.20;5.75;;;;;;;;;;5075486;28;20246;-76
2022/02/12 05:49:26;;;;;;;12.65;4.70;;;;;;;;;;5093499;28;20533;-76
2022/02/12 05:51:52;;;;;;;39.95;7.18;;;;;;;;;;5094121;28;20179;-76
2022/02/12 05:54:18;;;;;;;15.30;5.10;;;;;;;;;;5088835;28;20282;-73
2022/02/12 05:56:44;;;;;;;11.93;4.45;;;;;;;;;;5087921;28;20174;-73
2022/02/12 05:59:13;;;;;;;30.83;6.30;;;;;;;;;;5093683;28;20182;-73
2022/02/12 06:01:39;;;;;;;10.60;4.40;;;;;;;;;;5093923;28;20416;-74
2022/02/12 06:04:06;;;;;;;11.15;4.35;;;;;;;;;;5088306;28;20191;-74
2022/02/12 06:06:32;;;;;;;11.75;4.35;;;;;;;;;;5074448;28;20182;-73
2022/02/12 06:08:57;;;;;;;20.45;5.63;;;;;;;;;;5087456;28;20174;-73
2022/02/12 06:11:23;;;;;;;12.43;4.87;;;;;;;;;;5094220;28;20633;-74
2022/02/12 06:13:51;;;;;;;18.00;5.23;;;;;;;;;;5093969;28;20561;-74
2022/02/12 06:16:18;;;;;;;9.43;4.75;;;;;;;;;;5093049;28;20439;-73
2022/02/12 06:18:45;;;;;;;23.63;5.57;;;;;;;;;;5093745;28;20283;-73
2022/02/12 06:21:11;;;;;;;24.73;5.57;;;;;;;;;;5093648;28;20179;-74
2022/02/12 06:23:37;;;;;;;14.02;5.25;;;;;;;;;;5085972;28;20198;-73
2022/02/12 06:26:04;;;;;;;16.40;5.65;;;;;;;;;;5093349;28;20174;-73
2022/02/12 06:28:30;;;;;;;27.95;4.65;;;;;;;;;;5091014;28;20664;-73
2022/02/12 06:30:56;;;;;;;11.48;4.38;;;;;;;;;;5080871;28;20185;-74
2022/02/12 06:33:22;;;;;;;8.43;3.75;;;;;;;;;;5086037;28;20183;-74
2022/02/12 06:35:48;;;;;;;15.77;4.87;;;;;;;;;;5092755;28;20227;-74
2022/02/12 06:38:14;;;;;;;11.80;4.97;;;;;;;;;;5080417;28;20423;-73
2022/02/12 06:40:40;;;;;;;22.10;6.10;;;;;;;;;;5093890;28;20178;-76
2022/02/12 06:43:06;;;;;;;14.60;4.13;;;;;;;;;;5086616;28;20456;-76
2022/02/12 06:45:34;;;;;;;15.30;4.50;;;;;;;;;;5090690;28;20439;-76
2022/02/12 06:48:00;;;;;;;26.80;7.13;;;;;;;;;;5090242;28;20167;-76
2022/02/12 06:50:25;;;;;;;14.13;4.20;;;;;;;;;;5078422;28;20621;-75
2022/02/12 06:52:51;;;;;;;10.68;4.43;;;;;;;;;;5084393;28;20231;-76
2022/02/12 06:55:17;;;;;;;17.50;6.10;;;;;;;;;;5091744;28;20185;-76
2022/02/12 06:57:43;;;;;;;14.45;5.50;;;;;;;;;;5093023;28;20972;-76
2022/02/12 07:00:11;;;;;;;12.10;5.07;;;;;;;;;;5093425;28;20173;-76
2022/02/12 07:02:37;;;;;;;8.18;4.43;;;;;;;;;;5092545;28;20424;-76
2022/02/12 07:05:04;;;;;;;12.60;4.47;;;;;;;;;;5093416;28;20190;-76
2022/02/12 07:07:30;;;;;;;12.77;4.15;;;;;;;;;;5091137;28;20180;-76
2022/02/12 07:09:56;;;;;;;12.60;4.95;;;;;;;;;;5087453;28;20192;-76
2022/02/12 07:12:22;;;;;;;12.53;4.30;;;;;;;;;;5085540;28;20186;-75
2022/02/12 07:14:48;;;;;;;17.15;5.85;;;;;;;;;;5078562;28;20429;-74
2022/02/12 07:17:15;;;;;;;9.90;4.77;;;;;;;;;;5073126;28;20220;-75
2022/02/12 07:19:41;;;;;;;17.27;5.30;;;;;;;;;;5084711;28;20769;-76
2022/02/12 07:22:07;;;;;;;10.52;5.20;;;;;;;;;;5080829;28;20182;-75
2022/02/12 07:24:33;;;;;;;13.13;5.00;;;;;;;;;;5092615;28;20205;-74
2022/02/12 07:26:59;;;;;;;8.73;4.70;;;;;;;;;;5092967;28;20459;-75
2022/02/12 07:29:25;;;;;;;16.37;4.50;;;;;;;;;;5092778;28;20174;-75
2022/02/12 07:31:51;;;;;;;17.75;5.20;;;;;;;;;;5092725;28;20408;-75
2022/02/12 07:34:19;;;;;;;18.67;5.10;;;;;;;;;;5082406;28;20642;-75
2022/02/12 07:36:45;;;;;;;10.55;5.15;;;;;;;;;;5093139;28;20411;-75
2022/02/12 07:39:11;;;;;;;22.08;6.30;;;;;;;;;;5091778;28;20583;-76
2022/02/12 07:41:37;;;;;;;20.85;6.15;;;;;;;;;;5087924;28;20655;-76
2022/02/12 07:44:04;;;;;;;15.90;5.87;;;;;;;;;;5084185;28;20190;-75
2022/02/12 07:46:30;;;;;;;13.43;5.28;;;;;;;;;;5090895;28;20422;-76
2022/02/12 07:48:56;;;;;;;93.80;14.15;;;;;;;;;;5086132;28;20249;-76
2022/02/12 07:51:22;;;;;;;39.03;8.07;;;;;;;;;;5080794;28;20221;-76
2022/02/12 07:53:48;;;;;;;17.38;6.00;;;;;;;;;;5091207;28;20284;-75
2022/02/12 07:56:14;;;;;;;12.30;5.28;;;;;;;;;;5088746;28;20202;-76
2022/02/12 07:58:40;;;;;;;17.52;6.43;;;;;;;;;;5091833;28;20182;-76
2022/02/12 08:01:06;;;;;;;13.93;5.60;;;;;;;;;;5089122;28;20170;-77
2022/02/12 08:03:32;;;;;;;17.00;5.60;;;;;;;;;;5081758;28;20525;-76
2022/02/12 08:05:58;;;;;;;18.87;6.27;;;;;;;;;;5091035;28;20432;-76
2022/02/12 08:08:24;;;;;;;16.90;5.97;;;;;;;;;;5097259;28;20507;-76
2022/02/12 08:13:35;;;;;;;18.00;5.20;;;;;;;;;;5089455;28;20288;-73
2022/02/12 08:16:01;;;;;;;20.40;6.87;;;;;;;;;;5084226;28;20650;-73
2022/02/12 08:18:27;;;;;;;21.60;7.00;;;;;;;;;;5091031;28;20667;-73
2022/02/12 08:20:53;;;;;;;18.27;6.23;;;;;;;;;;5095660;28;20415;-74
2022/02/12 08:23:19;;;;;;;15.87;5.63;;;;;;;;;;5092494;28;20555;-74
2022/02/12 08:25:45;;;;;;;23.63;7.25;;;;;;;;;;5089215;28;20448;-74
2022/02/12 08:28:11;;;;;;;35.63;7.60;;;;;;;;;;5096208;28;20178;-74
2022/02/12 08:30:37;;;;;;;15.13;6.28;;;;;;;;;;5094977;28;20204;-74
2022/02/12 08:33:03;;;;;;;17.80;6.45;;;;;;;;;;5093853;28;20377;-74
2022/02/12 08:35:29;;;;;;;12.70;5.85;;;;;;;;;;5096078;28;20167;-74
2022/02/12 08:37:56;;;;;;;13.20;6.15;;;;;;;;;;5085665;28;20177;-74
2022/02/12 08:40:22;;;;;;;16.83;6.13;;;;;;;;;;5096334;28;20227;-73
2022/02/12 08:42:49;;;;;;;16.40;5.43;;;;;;;;;;5091531;28;20202;-74
2022/02/12 08:45:15;;;;;;;16.80;6.05;;;;;;;;;;5090113;28;20175;-74
2022/02/12 08:47:41;;;;;;;28.73;6.80;;;;;;;;;;5077729;28;20174;-74
2022/02/12 08:50:08;;;;;;;13.13;5.25;;;;;;;;;;5100546;28;20231;-74
2022/02/12 08:52:35;;;;;;;11.25;5.43;;;;;;;;;;5093022;28;20181;-74
2022/02/12 08:55:01;;;;;;;17.58;5.65;;;;;;;;;;5095974;28;20194;-74
2022/02/12 08:57:27;;;;;;;22.33;7.00;;;;;;;;;;5093183;28;20254;-75
2022/02/12 08:59:53;;;;;;;13.68;5.55;;;;;;;;;;5089263;28;20265;-75
2022/02/12 09:02:19;;;;;;;18.17;4.80;;;;;;;;;;5095837;28;20174;-74
2022/02/12 09:04:45;;;;;;;20.77;5.13;;;;;;;;;;5096154;28;20190;-75
2022/02/12 09:07:11;;;;;;;7.47;3.55;;;;;;;;;;5095545;28;20252;-74
2022/02/12 09:09:39;;;;;;;15.55;4.43;;;;;;;;;;5095500;28;20185;-74
2022/02/12 09:12:05;;;;;;;19.05;5.43;;;;;;;;;;5096429;28;20206;-75
2022/02/12 09:14:32;;;;;;;23.20;5.78;;;;;;;;;;5095914;28;20209;-75
2022/02/12 09:16:58;;;;;;;20.67;4.50;;;;;;;;;;5095254;28;20182;-76
2022/02/12 09:19:24;;;;;;;24.25;4.72;;;;;;;;;;5092578;28;20205;-78
2022/02/12 09:21:50;;;;;;;25.67;4.80;;;;;;;;;;5092247;28;20221;-79
2022/02/12 09:24:16;;;;;;;13.57;4.25;;;;;;;;;;5075639;28;20459;-79
2022/02/12 09:26:42;;;;;;;18.05;3.97;;;;;;;;;;5074722;28;20175;-74
2022/02/12 09:29:08;;;;;;;20.55;4.63;;;;;;;;;;5076368;28;20179;-75
2022/02/12 09:31:34;;;;;;;14.40;3.75;;;;;;;;;;5095266;28;20172;-74
2022/02/12 09:34:00;;;;;;;11.60;3.37;;;;;;;;;;5088812;28;20668;-74
2022/02/12 09:36:26;;;;;;;16.70;3.03;;;;;;;;;;5075137;28;20410;-74
2022/02/12 09:38:52;;;;;;;8.33;3.30;;;;;;;;;;5089427;28;20895;-75
2022/02/12 09:41:23;;;;;;;7.30;2.23;;;;;;;;;;5082507;28;20811;-78
2022/02/12 09:43:50;;;;;;;11.20;2.90;;;;;;;;;;5081625;28;20448;-78
2022/02/12 09:46:31;;;;;;;8.30;2.90;;;;;;;;;;5095087;28;20404;-78
2022/02/12 09:49:00;;;;;;;10.47;3.90;;;;;;;;;;5086308;28;20413;-78
2022/02/12 09:51:28;;;;;;;10.47;2.80;;;5.40;1.00;;;;;;5078230;28;20424;-78
2022/02/12 09:53:54;;;;;;;9.97;2.67;;;;;;;;;;5078878;28;20961;-78
2022/02/12 09:56:20;;;;;;;6.20;1.87;;;;;;;;;;5094998;28;20416;-74
2022/02/12 09:58:46;;;;;;;17.33;3.57;;;;;;;;;;5094095;28;20427;-74
2022/02/12 10:01:12;;;;;;;464.13;149.00;;;;;;;;;;5089176;28;20432;-74
2022/02/12 10:03:39;;;;;;;39.77;15.23;;;;;;;;;;5092345;28;20458;-74
2022/02/12 10:06:05;;;;;;;29.27;7.07;;;;;;;;;;5091048;28;20872;-74
2022/02/12 10:08:33;;;;;;;81.97;27.73;;;;;;;;;;5089857;28;20432;-74
2022/02/12 10:11:10;;;;;;;264.47;83.93;;;;;;;;;;5094396;28;20409;-74
2022/02/12 10:13:36;;;;;;;56.00;16.63;;;;;;;;;;5094196;28;20980;-75
2022/02/12 10:16:04;;;;;;;63.70;22.07;;;;;;;;;;5086232;28;20520;-75
2022/02/12 10:18:35;;;;;;;62.47;17.57;;;;;;;;;;5074077;28;20910;-75
2022/02/12 10:21:01;;;;;;;170.20;53.90;;;;;;;;;;5076158;28;20417;-75
2022/02/12 10:23:29;;;;;;;162.70;52.43;;;;;;;;;;5082474;28;20484;-75
2022/02/12 10:26:15;;;;;;;88.57;28.03;;;;;;;;;;5080153;28;20929;-76
2022/02/12 10:28:45;;;;;;;44.57;15.20;;;;;;;;;;5075629;28;20782;-76
2022/02/12 10:31:11;;;;;;;140.90;44.40;;;;;;;;;;5084467;28;20424;-76
2022/02/12 10:33:45;;;;;;;92.73;29.20;;;;;;;;;;5074758;28;20429;-76
2022/02/12 10:36:15;;;;;;;215.37;63.80;;;;;;;;;;5073956;28;20445;-76
2022/02/12 10:38:44;;;;;;;390.83;131.27;;;;;;;;;;5077624;28;20420;-76
2022/02/12 10:41:18;;;;;;;153.27;52.73;;;6.50;1.00;;;;;;5073795;28;20466;-76
2022/02/12 10:43:54;;;;;;;46.93;14.27;;;;;;;;;;5076938;28;20455;-76
2022/02/12 10:46:21;;;;;;;58.73;23.50;;;6.30;1.00;;;;;;5079716;28;20424;-76
2022/02/12 10:48:49;;;;;;;61.47;22.10;;;;;;;;;;5088302;28;20460;-76
2022/02/12 10:51:16;;;;;;;50.40;14.47;;;;;;;;;;5083784;28;20417;-77
2022/02/12 10:54:02;;;;;;;35.27;14.17;;;;;;;;;;5080993;28;20483;-77
2022/02/12 10:56:46;;;;;;;103.77;34.10;;;6.80;1.00;;;;;;5082300;28;20516;-77
2022/02/12 10:59:13;;;;;;;34.97;12.83;;;;;;;;;;5084913;28;20417;-77
2022/02/12 11:01:39;;;;;;;32.03;9.27;;;;;;;;;;5089427;28;20424;-77
2022/02/12 11:04:08;;;;;;;56.60;19.87;;;;;;;;;;5072889;28;20445;-77
2022/02/12 11:06:36;;;;;;;41.43;14.17;;;7.00;1.00;;;;;;5073010;28;20493;-77
2022/02/12 11:09:03;;;;;;;194.30;64.00;;;;;;;;;;5080124;28;20453;-77
2022/02/12 11:11:30;;;;;;;330.17;101.83;;;;;;;;;;5073249;28;20417;-77
2022/02/12 11:13:58;;;;;;;277.23;75.20;;;;;;;;;;5079720;28;20429;-75
2022/02/12 11:16:24;;;;;;;119.03;34.17;;;;;;;;;;5084131;28;20782;-75
2022/02/12 11:18:50;;;;;;;37.20;9.40;;;;;;;;;;5076921;28;20417;-75
2022/02/12 11:21:17;;;;;;;231.67;78.30;;;;;;;;;;5073275;28;20917;-75
2022/02/12 11:23:58;;;;;;;24.80;9.80;;;;;;;;;;5073126;28;20955;-75
2022/02/12 11:26:24;;;;;;;107.53;40.50;;;;;;;;;;5079976;28;20425;-75
2022/02/12 11:28:50;;;;;;;112.73;43.77;;;;;;;;;;5081548;28;20419;-77
2022/02/12 11:31:29;;;;;;;128.83;40.47;;;7.00;1.00;;;;;;5084092;28;20417;-77
2022/02/12 11:34:12;;;;;;;68.00;20.67;;;;;;;;;;5079338;28;20912;-78
2022/02/12 11:36:39;;;;;;;38.70;10.40;;;;;;;;;;5072965;28;20740;-78
2022/02/12 11:39:13;;;;;;;82.30;26.50;;;;;;;;;;5074683;28;20406;-78
2022/02/12 11:41:43;;;;;;;66.87;25.20;;;7.50;1.00;;;;;;5072966;28;20417;-77
2022/02/12 11:44:09;;;;;;;133.73;42.27;;;;;;;;;;5073510;28;20472;-77
2022/02/12 11:46:41;;;;;;;100.97;36.93;;;;;;;;;;5080819;28;20791;-77
2022/02/12 11:49:27;;;;;;;59.17;21.60;;;7.50;1.00;;;;;;5079952;28;20789;-77
2022/02/12 11:51:53;;;;;;;163.00;46.87;;;;;;;;;;5072454;28;20479;-77
2022/02/12 11:54:44;;;;;;;15.17;5.70;;;7.60;1.00;;;;;;5075167;28;20443;-77
2022/02/12 11:57:14;;;;;;;59.27;17.80;;;7.80;1.00;;;;;;5076537;28;20436;-77
2022/02/12 11:59:40;;;;;;;40.83;15.37;;;;;;;;;;5076267;28;20845;-73
2022/02/12 12:02:07;;;;;;;15.53;3.80;;;;;;;;;;5077133;28;20417;-73
2022/02/12 12:04:33;;;;;;;11.97;3.90;;;;;;;;;;5072163;28;20464;-73
2022/02/12 12:07:05;;;;;;;31.90;13.77;;;;;;;;;;5073081;28;20413;-73
2022/02/12 12:09:39;;;;;;;53.37;14.67;;;7.90;1.00;;;;;;5083916;28;20918;-73
2022/02/12 12:12:28;;;;;;;277.47;114.00;;;;;;;;;;5085554;28;20783;-73
2022/02/12 12:15:15;;;;;;;45.20;18.33;;;8.00;1.00;;;;;;5060721;28;20448;-77
2022/02/12 12:17:42;;;;;;;183.00;72.00;;;;;;;;;;5072684;28;20421;-77
2022/02/12 12:20:10;;;;;;;47.33;18.13;;;;;;;;;;5076799;28;20429;-78
2022/02/12 12:22:36;;;;;;;46.23;14.90;;;;;;;;;;5091773;28;20944;-77
2022/02/12 12:25:02;;;;;;;45.30;11.87;;;;;;;;;;5073925;28;20551;-77
2022/02/12 12:27:33;;;;;;;36.67;10.97;;;8.40;1.00;;;;;;5074224;28;20427;-78
2022/02/12 12:32:59;;;;;;;13.47;4.00;;;;;;;;;;5082414;28;20470;-77
2022/02/12 12:35:26;;;;;;;12.97;4.60;;;;;;;;;;5078086;28;20908;-77
2022/02/12 12:37:55;;;;;;;23.73;8.17;;;;;;;;;;5072133;28;20664;-77
2022/02/12 12:40:35;;;;;;;34.17;6.90;;;8.50;1.00;;;;;;5072343;28;20421;-77
2022/02/12 12:43:08;;;;;;;23.90;4.50;;;8.60;1.00;;;;;;5086024;28;20423;-77
2022/02/12 12:45:41;;;;;;;19.23;8.20;;;;;;;;;;5072827;28;20735;-73
2022/02/12 12:48:07;;;;;;;10.97;2.83;;;;;;;;;;5072099;28;20478;-73
2022/02/12 12:50:37;;;;;;;8.80;2.43;;;;;;;;;;5072094;28;20495;-73
2022/02/12 12:53:03;;;;;;;11.20;2.80;;;;;;;;;;5077571;28;20435;-73
2022/02/12 12:55:29;;;;;;;10.87;2.70;;;;;;;;;;5081889;28;20416;-73
2022/02/12 12:57:55;;;;;;;51.73;21.07;;;;;;;;;;5079959;28;20512;-72
2022/02/12 13:00:23;;;;;;;35.23;13.30;;;8.70;1.00;;;;;;5084867;28;20530;-73
2022/02/12 13:02:53;;;;;;;33.80;13.57;;;;;;;;;;5087329;28;20412;-73
2022/02/12 13:05:24;;;;;;;79.13;28.67;;;;;;;;;;5085035;28;20459;-73
2022/02/12 13:07:52;;;;;;;58.40;15.80;;;8.80;1.00;;;;;;5083087;28;20514;-73
2022/02/12 13:10:19;;;;;;;15.73;5.97;;;;;;;;;;5082117;28;20436;-72
2022/02/12 13:12:45;;;;;;;25.63;6.13;;;;;;;;;;5086381;28;20449;-73
2022/02/12 13:15:15;;;;;;;12.63;4.60;;;8.70;1.00;;;;;;5079965;28;20796;-77
2022/02/12 13:17:49;;;;;;;55.23;20.33;;;8.70;1.00;;;;;;5089941;28;20421;-77
2022/02/12 13:20:16;;;;;;;30.10;10.07;;;;;;;;;;5082085;28;20951;-76
2022/02/12 13:22:59;;;;;;;11.13;4.07;;;;;;;;;;5079102;28;20404;-76
2022/02/12 13:25:30;;;;;;;10.67;3.87;;;;;;;;;;5083377;28;20496;-76
2022/02/12 13:27:59;;;;;;;7.20;2.23;;;;;;;;;;5084481;28;20471;-77
2022/02/12 13:30:34;;;;;;;17.67;5.30;;;;;;;;;;5090846;28;20412;-76
2022/02/12 13:33:05;;;;;;;84.00;31.37;;;9.20;1.00;;;;;;5082656;28;20395;-77
2022/02/12 13:35:36;;;;;;;35.37;11.80;;;;;;;;;;5074129;28;20425;-76
2022/02/12 13:38:03;;;;;;;50.70;19.20;;;;;;;;;;5083080;28;20417;-76
2022/02/12 13:40:29;;;;;;;23.47;6.03;;;;;;;;;;5079962;28;20423;-76
2022/02/12 13:43:12;;;;;;;60.30;20.10;;;;;;;;;;5081696;28;20432;-76
2022/02/12 13:45:40;;;;;;;99.63;37.60;;;;;;;;;;5093773;28;20432;-76
2022/02/12 13:48:11;;;;;;;16.03;6.33;;;;;;;;;;5084378;28;20860;-76
2022/02/12 13:50:39;;;;;;;425.47;54.70;;;;;;;;;;5071442;28;20408;-76
2022/02/12 13:53:06;;;;;;;111.90;42.23;;;;;;;;;;5078553;28;20903;-76
2022/02/12 13:55:34;;;;;;;84.07;29.27;;;;;;;;;;5082989;28;20776;-75
2022/02/12 13:58:01;;;;;;;30.57;9.40;;;;;;;;;;5093818;28;20416;-75
2022/02/12 14:00:27;;;;;;;12.57;3.70;;;;;;;;;;5073838;28;20800;-75
2022/02/12 14:02:53;;;;;;;14.23;4.87;;;;;;;;;;5079314;28;20424;-75
2022/02/12 14:05:20;;;;;;;54.57;20.60;;;;;;;;;;5074509;28;20978;-75
2022/02/12 14:07:46;;;;;;;9.57;4.13;;;;;;;;;;5074310;28;20437;-75
2022/02/12 14:10:12;;;;;;;36.70;14.23;;;;;;;;;;5080117;28;20384;-75
2022/02/12 14:12:39;;;;;;;15.50;4.33;;;;;;;;;;5073890;28;20425;-75
2022/02/12 14:15:06;;;;;;;120.13;43.87;;;;;;;;;;5079985;28;20507;-75
2022/02/12 14:17:32;;;;;;;130.03;50.80;;;;;;;;;;5077545;28;20515;-74
2022/02/12 14:19:58;;;;;;;33.60;12.00;;;;;;;;;;5075016;28;20433;-73
2022/02/12 14:22:24;;;;;;;40.67;9.83;;;;;;;;;;5084212;28;20773;-73
2022/02/12 14:24:50;;;;;;;69.10;19.17;;;;;;;;;;5079865;28;20488;-73
2022/02/12 14:27:16;;;;;;;56.77;11.20;;;;;;;;;;5075493;28;20463;-73
2022/02/12 14:29:43;;;;;;;27.13;7.20;;;;;;;;;;5093636;28;20438;-73
2022/02/12 14:32:10;;;;;;;19.23;3.90;;;;;;;;;;5084993;28;20477;-74
2022/02/12 14:34:36;;;;;;;13.33;4.07;;;;;;;;;;5072709;28;20422;-74